Time;durP1;ratioP1;P1;durP2;ratioP2;P2;SDS_P1;SDS_P2;PMS_P1;PMS_P2;Temp;Humidity;BMP_temperature;BMP_pressure;BME280_temperature;BME280_humidity;BME280_pressure;Samples;Min_cycle;Max_cycle;Signal;HPM_P1;HPM_P2
2023/10/13 00:02:07;;;;;;;3.30;3.30;;;18.20;99.90;;;;;;5096585;28;20473;-68
2023/10/13 00:04:35;;;;;;;3.30;3.30;;;18.20;99.90;;;;;;5108686;28;20510;-68
2023/10/13 00:07:04;;;;;;;3.23;3.23;;;18.20;99.90;;;;;;5100557;28;20547;-68
2023/10/13 00:09:33;;;;;;;3.13;3.13;;;18.20;99.90;;;;;;5090328;28;20499;-67
2023/10/13 00:12:00;;;;;;;3.20;3.20;;;18.20;99.90;;;;;;5091613;28;20508;-67
2023/10/13 00:14:33;;;;;;;3.50;3.50;;;18.20;99.90;;;;;;5094478;28;20485;-68
2023/10/13 00:17:04;;;;;;;3.20;3.20;;;18.30;99.90;;;;;;5097243;28;20531;-68
2023/10/13 00:19:45;;;;;;;3.20;3.20;;;18.20;99.90;;;;;;5089265;28;20848;-67
2023/10/13 00:22:12;;;;;;;4.00;4.00;;;18.20;99.90;;;;;;5096910;28;20822;-67
2023/10/13 00:24:45;;;;;;;3.67;3.67;;;18.10;99.90;;;;;;5096117;28;20868;-68
2023/10/13 00:27:29;;;;;;;3.50;3.50;;;18.10;99.90;;;;;;5093540;28;20454;-67
2023/10/13 00:32:42;;;;;;;3.40;3.40;;;18.10;99.90;;;;;;5096340;28;20875;-67
2023/10/13 00:35:13;;;;;;;3.40;3.40;;;18.10;99.90;;;;;;5102194;28;21048;-67
2023/10/13 00:37:44;;;;;;;3.93;3.93;;;18.20;99.90;;;;;;5099882;28;20462;-66
2023/10/13 00:40:41;;;;;;;3.10;3.10;;;18.10;99.90;;;;;;5103823;28;20458;-68
2023/10/13 00:45:54;;;;;;;3.97;3.97;;;18.10;99.90;;;;;;5092584;28;20528;-68
2023/10/13 00:48:28;;;;;;;3.50;3.50;;;18.10;99.90;;;;;;5098521;28;20511;-68
2023/10/13 00:50:57;;;;;;;3.50;3.50;;;18.20;99.90;;;;;;5099832;28;20462;-68
2023/10/13 00:53:25;;;;;;;3.20;3.20;;;18.20;99.90;;;;;;5096886;28;20506;-67
2023/10/13 00:55:55;;;;;;;3.60;3.60;;;18.20;99.90;;;;;;5099890;28;20557;-68
2023/10/13 00:58:22;;;;;;;3.50;3.50;;;18.20;99.90;;;;;;5096276;28;20522;-67
2023/10/13 01:00:56;;;;;;;4.20;4.20;;;18.20;99.90;;;;;;5096478;28;20474;-67
2023/10/13 01:03:26;;;;;;;4.30;4.30;;;18.20;99.90;;;;;;5103457;28;20759;-66
2023/10/13 01:05:55;;;;;;;4.60;4.60;;;18.20;99.90;;;;;;5098819;28;20454;-67
2023/10/13 01:08:37;;;;;;;4.60;4.60;;;18.20;99.90;;;;;;5093452;28;20566;-67
2023/10/13 01:11:06;;;;;;;4.60;4.60;;;18.20;99.90;;;;;;5089183;28;20543;-67
2023/10/13 01:13:36;;;;;;;4.87;4.87;;;18.20;99.90;;;;;;5098021;28;20542;-68
2023/10/13 01:16:07;;;;;;;5.80;5.70;;;18.20;99.90;;;;;;5060824;28;1045941;-67
2023/10/13 01:18:40;;;;;;;5.67;5.57;;;18.20;99.90;;;;;;5098158;28;20454;-67
2023/10/13 01:21:15;;;;;;;6.50;6.40;;;18.20;99.90;;;;;;5093688;28;20815;-67
2023/10/13 01:23:44;;;;;;;7.30;7.20;;;18.20;99.90;;;;;;5097954;28;20641;-67
2023/10/13 01:26:13;;;;;;;8.40;8.30;;;18.20;99.90;;;;;;5096913;28;20464;-66
2023/10/13 01:28:44;;;;;;;8.10;8.00;;;18.10;99.90;;;;;;5096928;28;20833;-66
2023/10/13 01:31:24;;;;;;;12.20;11.90;;;18.10;99.90;;;;;;5097519;28;20477;-67
2023/10/13 01:33:53;;;;;;;12.47;12.07;;;18.10;99.90;;;;;;5095320;28;20486;-66
2023/10/13 01:36:22;;;;;;;11.90;11.60;;;18.10;99.90;;;;;;5103380;28;21113;-69
2023/10/13 01:38:51;;;;;;;11.90;11.60;;;18.00;99.90;;;;;;5092297;28;21082;-67
2023/10/13 01:41:19;;;;;;;11.50;11.20;;;18.10;99.90;;;;;;5096658;28;21005;-66
2023/10/13 01:43:45;;;;;;;11.93;11.63;;;18.10;99.90;;;;;;5096532;28;20867;-67
2023/10/13 01:46:14;;;;;;;11.90;11.60;;;18.00;99.90;;;;;;5096181;28;20481;-67
2023/10/13 01:48:44;;;;;;;12.00;11.70;;;18.00;99.90;;;;;;5103830;28;20239;-68
2023/10/13 01:51:11;;;;;;;11.90;11.60;;;18.00;99.90;;;;;;5101954;28;20459;-68
2023/10/13 01:53:39;;;;;;;11.43;11.13;;;18.00;99.90;;;;;;5093934;28;20992;-67
2023/10/13 01:56:10;;;;;;;11.50;11.20;;;18.00;99.90;;;;;;5095406;28;20465;-67
2023/10/13 01:58:41;;;;;;;11.47;11.17;;;18.00;99.90;;;;;;5089426;28;20883;-66
2023/10/13 02:01:07;;;;;;;11.50;11.20;;;18.00;99.90;;;;;;5089984;28;20464;-66
2023/10/13 02:03:36;;;;;;;11.43;11.13;;;18.00;99.90;;;;;;5105109;28;20815;-66
2023/10/13 02:06:04;;;;;;;12.10;11.80;;;18.00;99.90;;;;;;5109791;28;20533;-66
2023/10/13 02:08:31;;;;;;;11.00;10.70;;;18.10;99.90;;;;;;5092770;28;20479;-68
2023/10/13 02:10:58;;;;;;;10.50;10.30;;;18.10;99.90;;;;;;5100249;28;20445;-68
2023/10/13 02:13:28;;;;;;;9.90;9.70;;;18.00;99.90;;;;;;5091370;28;20546;-68
2023/10/13 02:15:56;;;;;;;11.03;10.73;;;18.00;99.90;;;;;;5098278;28;20494;-68
2023/10/13 02:18:27;;;;;;;11.20;10.90;;;17.90;99.90;;;;;;5089300;28;20465;-66
2023/10/13 02:20:56;;;;;;;11.30;11.00;;;18.00;99.90;;;;;;5090880;28;20485;-66
2023/10/13 02:23:24;;;;;;;11.10;10.80;;;18.10;99.90;;;;;;5101526;28;20497;-67
2023/10/13 02:26:00;;;;;;;10.00;9.80;;;18.10;99.90;;;;;;5093655;28;20891;-66
2023/10/13 02:28:33;;;;;;;10.33;10.13;;;18.10;99.90;;;;;;5107712;28;20467;-68
2023/10/13 02:31:03;;;;;;;10.03;9.83;;;18.10;99.90;;;;;;5097823;28;20842;-67
2023/10/13 02:33:30;;;;;;;9.77;9.57;;;18.10;99.90;;;;;;5107019;27;20456;-68
2023/10/13 02:35:56;;;;;;;10.07;9.87;;;18.10;99.90;;;;;;5101859;28;20588;-68
2023/10/13 02:38:27;;;;;;;9.40;9.20;;;18.10;99.90;;;;;;5091948;28;20497;-67
2023/10/13 02:40:54;;;;;;;10.47;10.27;;;18.10;99.90;;;;;;5106550;28;20457;-69
2023/10/13 02:43:23;;;;;;;9.60;9.40;;;18.10;99.90;;;;;;5091194;28;20521;-67
2023/10/13 02:45:58;;;;;;;10.17;9.97;;;18.10;99.90;;;;;;5095421;28;20478;-67
2023/10/13 02:48:30;;;;;;;10.43;10.23;;;18.10;99.90;;;;;;5096182;28;20982;-69
2023/10/13 02:51:01;;;;;;;10.00;9.80;;;18.10;99.90;;;;;;5095865;28;20453;-67
2023/10/13 02:53:29;;;;;;;11.00;10.70;;;18.00;99.90;;;;;;5105003;28;20874;-69
2023/10/13 02:55:58;;;;;;;11.27;10.97;;;18.00;99.90;;;;;;5101917;28;20572;-67
2023/10/13 02:58:37;;;;;;;10.17;9.97;;;18.10;99.90;;;;;;5088380;28;20822;-68
2023/10/13 03:01:16;;;;;;;10.80;10.50;;;18.00;99.90;;;;;;5096611;28;20836;-68
2023/10/13 03:03:54;;;;;;;10.43;10.23;;;18.00;99.90;;;;;;5100908;28;20488;-66
2023/10/13 03:06:24;;;;;;;9.93;9.73;;;18.00;99.90;;;;;;5103435;28;20457;-68
2023/10/13 03:08:51;;;;;;;10.00;9.80;;;18.00;99.90;;;;;;5095162;28;20457;-67
2023/10/13 03:11:22;;;;;;;10.47;10.27;;;18.00;99.90;;;;;;5087688;28;20466;-67
2023/10/13 03:13:51;;;;;;;10.10;9.90;;;17.90;99.90;;;;;;5103039;28;20515;-67
2023/10/13 03:16:20;;;;;;;10.40;10.20;;;17.90;99.90;;;;;;5097513;28;20995;-67
2023/10/13 03:18:55;;;;;;;10.40;10.20;;;18.00;99.90;;;;;;5094670;28;20972;-67
2023/10/13 03:21:29;;;;;;;10.40;10.20;;;18.00;99.90;;;;;;5090268;28;20457;-67
2023/10/13 03:24:04;;;;;;;10.40;10.20;;;18.00;99.90;;;;;;5097555;28;20515;-68
2023/10/13 03:26:34;;;;;;;10.53;10.33;;;17.90;99.90;;;;;;5097782;28;20828;-68
2023/10/13 03:29:03;;;;;;;10.43;10.23;;;17.90;99.90;;;;;;5097309;28;20453;-67
2023/10/13 03:31:36;;;;;;;10.60;10.40;;;17.90;99.90;;;;;;5096539;28;20458;-68
2023/10/13 03:34:09;;;;;;;10.40;10.20;;;18.00;99.90;;;;;;5100393;28;20462;-68
2023/10/13 03:39:22;;;;;;;11.40;11.10;;;17.90;99.90;;;;;;5088004;28;20450;-67
2023/10/13 03:41:53;;;;;;;10.80;10.50;;;17.90;99.90;;;;;;5088194;28;20503;-69
2023/10/13 03:44:20;;;;;;;11.00;10.70;;;18.00;99.90;;;;;;5092042;28;20511;-67
2023/10/13 03:46:49;;;;;;;11.10;10.80;;;18.00;99.90;;;;;;5092689;28;20454;-66
2023/10/13 03:49:21;;;;;;;11.27;10.97;;;18.00;99.90;;;;;;5094381;28;20911;-67
2023/10/13 03:51:48;;;;;;;11.40;11.10;;;18.00;99.90;;;;;;5097660;28;20462;-67
2023/10/13 03:54:16;;;;;;;10.90;10.60;;;18.00;99.90;;;;;;5093334;28;20569;-67
2023/10/13 03:56:45;;;;;;;10.80;10.50;;;18.00;99.90;;;;;;5101481;28;20457;-68
2023/10/13 03:59:19;;;;;;;10.90;10.60;;;18.00;99.90;;;;;;5100443;28;20516;-68
2023/10/13 04:01:58;;;;;;;10.30;10.10;;;18.10;99.90;;;;;;5097147;28;20887;-67
2023/10/13 04:04:34;;;;;;;10.20;10.00;;;18.10;99.90;;;;;;5089440;28;20555;-68
2023/10/13 04:07:20;;;;;;;11.10;10.80;;;18.10;99.90;;;;;;5095694;28;20456;-68
2023/10/13 04:15:22;;;;;;;10.87;10.57;;;18.10;99.90;;;;;;5100228;28;20884;-66
2023/10/13 04:17:51;;;;;;;9.97;9.77;;;18.10;99.90;;;;;;5097174;28;20473;-67
2023/10/13 04:20:32;;;;;;;10.20;10.00;;;18.10;99.90;;;;;;5099186;28;20472;-68
2023/10/13 04:23:18;;;;;;;10.00;9.80;;;18.20;99.90;;;;;;5105737;28;20462;-68
2023/10/13 04:28:37;;;;;;;10.30;10.10;;;18.10;99.90;;;;;;5096310;28;20457;-69
2023/10/13 04:31:24;;;;;;;10.70;10.40;;;18.10;99.90;;;;;;5106639;28;20474;-69
2023/10/13 04:33:54;;;;;;;11.23;10.93;;;18.20;99.90;;;;;;5094389;28;20464;-67
2023/10/13 04:36:36;;;;;;;11.50;11.20;;;18.10;99.90;;;;;;5106711;28;20938;-67
2023/10/13 04:39:09;;;;;;;11.40;11.10;;;18.10;99.90;;;;;;5094489;28;20462;-67
2023/10/13 04:41:39;;;;;;;11.10;10.80;;;18.20;99.90;;;;;;5103419;28;20473;-67
2023/10/13 04:44:28;;;;;;;11.57;11.27;;;18.20;99.90;;;;;;5095086;27;20524;-67
2023/10/13 04:47:07;;;;;;;11.37;11.07;;;18.20;99.90;;;;;;5095401;28;20450;-68
2023/10/13 04:49:51;;;;;;;10.80;10.50;;;18.20;99.90;;;;;;5101237;28;22547;-68
2023/10/13 04:55:24;;;;;;;11.20;10.90;;;18.20;99.90;;;;;;5108834;28;20517;-67
2023/10/13 04:58:00;;;;;;;10.60;10.40;;;18.20;99.90;;;;;;5099670;28;20996;-67
2023/10/13 05:04:08;;;;;;;10.77;10.50;;;18.20;99.90;;;;;;5035987;28;21087;-68
2023/10/13 05:48:00;;;;;;;8.10;8.00;;;18.40;99.90;;;;;;5093600;28;20488;-68
2023/10/13 05:50:49;;;;;;;8.43;8.33;;;18.40;99.90;;;;;;5098429;28;20830;-67
2023/10/13 06:29:02;;;;;;;7.80;7.70;;;18.40;99.90;;;;;;5089277;28;20991;-68
2023/10/13 06:31:30;;;;;;;8.10;8.00;;;18.40;99.90;;;;;;5098359;28;20457;-68
2023/10/13 06:33:57;;;;;;;9.20;9.00;;;18.30;99.90;;;;;;5091705;28;20948;-69
2023/10/13 06:36:25;;;;;;;9.03;8.83;;;18.40;99.90;;;;;;5083380;28;20489;-69
2023/10/13 06:39:34;;;;;;;9.40;9.20;;;18.40;99.90;;;;;;5088300;28;20475;-69
2023/10/13 06:41:45;;;;;;;9.40;9.20;;;18.30;99.90;;;;;;5086127;28;20567;-68
2023/10/13 06:44:16;;;;;;;9.50;9.30;;;18.30;99.90;;;;;;5095506;28;20515;-67
2023/10/13 06:46:43;;;;;;;9.60;9.40;;;18.30;99.90;;;;;;5090295;28;20470;-69
2023/10/13 06:49:12;;;;;;;9.93;9.73;;;18.40;99.90;;;;;;5086537;28;20553;-68
2023/10/13 06:51:40;;;;;;;9.97;9.77;;;18.40;99.90;;;;;;5094127;28;20454;-69
2023/10/13 06:54:18;;;;;;;10.33;10.13;;;18.40;99.90;;;;;;5088881;28;20462;-69
2023/10/13 06:56:46;;;;;;;10.53;10.33;;;18.40;99.90;;;;;;5092393;28;20530;-68
2023/10/13 06:59:14;;;;;;;10.37;10.17;;;18.50;99.90;;;;;;5094744;28;20560;-69
2023/10/13 07:01:44;;;;;;;10.47;10.27;;;18.50;99.90;;;;;;5096696;28;20453;-68
2023/10/13 07:04:14;;;;;;;10.50;10.30;;;18.50;99.90;;;;;;5101445;28;20572;-69
2023/10/13 07:06:44;;;;;;;10.90;10.60;;;18.50;99.90;;;;;;5087889;28;20466;-68
2023/10/13 07:09:28;;;;;;;10.90;10.60;;;18.50;99.90;;;;;;5090519;28;20464;-69
2023/10/13 07:12:01;;;;;;;11.13;10.83;;;18.60;99.90;;;;;;5092106;28;20539;-68
2023/10/13 07:14:33;;;;;;;11.20;10.90;;;18.60;99.90;;;;;;5099841;28;20565;-70
2023/10/13 07:17:04;;;;;;;10.90;10.60;;;18.60;99.90;;;;;;5100424;28;20551;-69
2023/10/13 07:19:33;;;;;;;10.30;10.10;;;18.60;99.90;;;;;;5097808;28;20503;-68
2023/10/13 07:22:18;;;;;;;10.30;10.10;;;18.70;99.90;;;;;;5097410;28;20502;-68
2023/10/13 07:24:48;;;;;;;10.70;10.40;;;18.70;99.90;;;;;;5093570;28;20875;-68
2023/10/13 07:27:22;;;;;;;11.10;10.80;;;18.70;99.90;;;;;;5099311;28;20554;-69
2023/10/13 07:30:06;;;;;;;10.97;10.67;;;18.70;99.90;;;;;;5089376;28;20472;-69
2023/10/13 07:32:33;;;;;;;10.20;10.00;;;18.80;99.90;;;;;;5096024;28;20549;-68
2023/10/13 07:35:08;;;;;;;11.17;10.87;;;18.80;99.90;;;;;;5093999;28;20489;-68
2023/10/13 07:37:35;;;;;;;11.10;10.80;;;18.80;99.90;;;;;;5092331;28;20475;-69
2023/10/13 07:40:09;;;;;;;11.27;10.97;;;18.90;99.90;;;;;;5091348;28;20470;-68
2023/10/13 07:42:43;;;;;;;11.20;10.90;;;18.90;99.90;;;;;;5093022;28;20456;-69
2023/10/13 07:45:13;;;;;;;11.30;11.00;;;18.90;99.90;;;;;;5094096;28;20485;-67
2023/10/13 07:47:41;;;;;;;10.93;10.63;;;18.90;99.90;;;;;;5094367;28;20532;-68
2023/10/13 07:50:09;;;;;;;11.47;11.17;;;18.90;99.90;;;;;;5100074;28;20512;-69
2023/10/13 07:52:54;;;;;;;11.50;11.20;;;19.00;99.90;;;;;;5101222;28;20543;-68
2023/10/13 07:55:21;;;;;;;11.33;11.03;;;19.00;99.90;;;;;;5099292;28;20476;-68
2023/10/13 07:57:54;;;;;;;11.30;11.00;;;19.10;99.90;;;;;;5099683;28;20879;-69
2023/10/13 08:00:29;;;;;;;11.30;11.00;;;19.00;99.90;;;;;;5087847;28;20956;-67
2023/10/13 08:03:09;;;;;;;11.07;10.77;;;19.10;99.90;;;;;;5089580;28;20526;-68
2023/10/13 08:05:55;;;;;;;11.10;10.80;;;19.10;99.90;;;;;;5099392;28;20457;-67
2023/10/13 08:08:25;;;;;;;10.97;10.67;;;19.20;99.90;;;;;;5101196;28;20569;-68
2023/10/13 08:10:55;;;;;;;10.60;10.30;;;19.30;99.90;;;;;;5097010;28;20488;-68
2023/10/13 08:13:23;;;;;;;10.53;10.23;;;19.40;99.90;;;;;;5098058;28;20833;-68
2023/10/13 08:15:53;;;;;;;10.53;10.27;;;19.50;99.90;;;;;;5095299;28;20554;-68
2023/10/13 08:18:29;;;;;;;10.60;10.30;;;19.60;99.90;;;;;;5096657;28;20484;-68
2023/10/13 08:21:03;;;;;;;10.80;10.50;;;19.70;99.90;;;;;;5099291;28;20786;-68
2023/10/13 08:23:57;;;;;;;10.93;10.63;;;19.80;99.90;;;;;;5095551;28;20511;-69
2023/10/13 08:26:56;;;;;;;11.30;11.00;;;20.00;99.90;;;;;;5095878;28;20807;-68
2023/10/13 08:32:19;;;;;;;12.00;11.60;;;20.20;99.90;;;;;;5093572;28;20505;-68
2023/10/13 08:37:45;;;;;;;12.40;12.00;;;20.50;99.90;;;;;;5092272;28;20518;-69
2023/10/13 08:40:43;;;;;;;12.80;12.40;;;20.60;99.90;;;;;;5099480;28;20948;-68
2023/10/13 08:43:11;;;;;;;12.50;12.10;;;20.80;99.90;;;;;;5096777;28;20514;-69
2023/10/13 08:45:58;;;;;;;11.90;11.60;;;21.00;99.90;;;;;;5100485;28;20894;-68
2023/10/13 08:48:32;;;;;;;11.33;11.03;;;21.20;99.90;;;;;;5094822;28;20553;-67
2023/10/13 08:51:09;;;;;;;11.70;11.40;;;21.40;99.90;;;;;;5095359;28;20460;-68
2023/10/13 08:53:44;;;;;;;12.00;11.70;;;21.50;99.90;;;;;;5099227;28;20952;-69
2023/10/13 08:56:17;;;;;;;11.60;11.30;;;21.80;99.90;;;;;;5099927;28;20476;-69
2023/10/13 08:59:05;;;;;;;12.23;11.93;;;22.10;99.90;;;;;;5094001;28;20679;-69
2023/10/13 09:01:37;;;;;;;12.90;12.50;;;22.30;99.90;;;;;;5096011;28;20838;-68
2023/10/13 09:04:21;;;;;;;12.70;12.30;;;22.60;99.90;;;;;;5095735;28;20461;-68
2023/10/13 09:07:07;;;;;;;12.80;12.40;;;22.70;99.90;;;;;;5097658;28;20884;-67
2023/10/13 09:09:59;;;;;;;12.80;12.40;;;22.80;99.90;;;;;;5098115;28;21225;-68
2023/10/13 09:12:36;;;;;;;13.10;12.70;;;22.90;99.90;;;;;;5099653;28;20480;-68
2023/10/13 09:15:06;;;;;;;13.77;13.30;;;22.90;99.90;;;;;;5097266;28;20460;-67
2023/10/13 09:17:42;;;;;;;13.20;12.80;;;22.90;99.90;;;;;;5098210;28;20473;-68
2023/10/13 09:20:31;;;;;;;13.40;13.00;;;23.00;99.90;;;;;;5093108;28;20464;-67
2023/10/13 09:23:07;;;;;;;13.80;13.30;;;23.20;99.90;;;;;;5095535;28;20457;-68
2023/10/13 09:25:36;;;;;;;13.80;13.30;;;23.30;99.90;;;;;;5097600;28;20549;-68
2023/10/13 09:28:10;;;;;;;14.17;13.67;;;23.30;99.90;;;;;;5102546;28;20450;-69
2023/10/13 09:30:43;;;;;;;13.97;13.47;;;23.20;99.90;;;;;;5107576;28;20464;-67
2023/10/13 09:33:15;;;;;;;14.10;13.60;;;23.30;99.90;;;;;;5095730;28;20470;-68
2023/10/13 09:35:49;;;;;;;14.33;13.83;;;23.30;99.90;;;;;;5108466;28;20512;-67
2023/10/13 09:38:15;;;;;;;14.10;13.60;;;23.30;99.90;;;;;;5102292;28;20474;-68
2023/10/13 09:40:46;;;;;;;14.10;13.60;;;23.60;99.90;;;;;;5091741;28;20460;-68
2023/10/13 09:43:17;;;;;;;14.40;13.90;;;23.80;99.90;;;;;;5100718;28;20484;-68
2023/10/13 09:46:01;;;;;;;14.33;13.83;;;23.70;99.90;;;;;;5092856;28;20991;-68
2023/10/13 09:48:31;;;;;;;14.40;13.90;;;23.70;99.90;;;;;;5100378;28;20445;-70
2023/10/13 09:51:02;;;;;;;14.10;13.60;;;23.90;99.90;;;;;;5097986;28;20869;-69
2023/10/13 09:53:30;;;;;;;14.57;14.07;;;23.90;99.90;;;;;;5097620;27;20461;-69
2023/10/13 09:56:13;;;;;;;13.53;13.13;;;24.00;99.90;;;;;;5090600;28;20489;-68
2023/10/13 09:58:50;;;;;;;14.20;13.70;;;24.10;99.90;;;;;;5090080;28;20469;-69
2023/10/13 10:01:21;;;;;;;14.33;13.83;;;24.20;99.90;;;;;;5094197;28;20582;-69
2023/10/13 10:03:52;;;;;;;14.13;13.63;;;24.30;99.90;;;;;;5093051;28;20450;-69
2023/10/13 10:06:28;;;;;;;14.53;14.03;;;24.40;99.90;;;;;;5094120;28;20781;-68
2023/10/13 10:09:11;;;;;;;14.47;13.97;;;24.40;99.90;;;;;;5099385;28;20481;-68
2023/10/13 10:12:01;;;;;;;14.40;13.90;;;24.50;99.90;;;;;;5092342;28;20453;-69
2023/10/13 10:14:54;;;;;;;14.70;14.20;;;24.60;99.90;;;;;;5091669;28;20458;-68
2023/10/13 10:17:22;;;;;;;14.57;14.07;;;24.60;99.90;;;;;;5098026;28;20537;-68
2023/10/13 10:19:53;;;;;;;14.80;14.30;;;24.60;99.90;;;;;;5092516;28;20470;-67
2023/10/13 10:22:35;;;;;;;14.50;14.00;;;24.90;99.90;;;;;;5099982;28;20523;-68
2023/10/13 10:25:06;;;;;;;14.87;14.30;;;25.20;99.90;;;;;;5096600;28;20449;-67
2023/10/13 10:27:34;;;;;;;14.20;13.70;;;25.20;99.90;;;;;;5092145;28;21059;-67
2023/10/13 10:30:03;;;;;;;14.53;14.03;;;24.90;99.90;;;;;;5100933;28;20473;-67
2023/10/13 10:32:35;;;;;;;14.57;14.07;;;24.90;99.90;;;;;;5094814;28;20460;-68
2023/10/13 10:35:14;;;;;;;14.10;13.60;;;24.90;99.90;;;;;;5087730;28;20494;-67
2023/10/13 10:37:46;;;;;;;14.10;13.60;;;25.10;99.90;;;;;;5095857;28;20534;-68
2023/10/13 10:40:33;;;;;;;13.80;13.40;;;25.40;99.90;;;;;;5096718;28;20461;-67
2023/10/13 10:43:00;;;;;;;14.40;13.90;;;25.60;99.90;;;;;;5091509;28;21020;-68
2023/10/13 10:45:32;;;;;;;14.67;14.17;;;25.90;99.90;;;;;;5098028;28;20483;-68
2023/10/13 10:48:01;;;;;;;14.50;14.00;;;26.10;99.90;;;;;;5097059;28;20515;-68
2023/10/13 10:50:34;;;;;;;15.83;15.23;;;26.50;99.90;;;;;;5089305;28;20466;-69
2023/10/13 10:53:08;;;;;;;14.83;14.33;;;26.50;99.90;;;;;;5089646;28;20512;-70
2023/10/13 10:55:36;;;;;;;14.60;14.10;;;26.20;99.90;;;;;;5090057;28;20453;-69
2023/10/13 10:58:06;;;;;;;15.33;14.73;;;25.80;99.90;;;;;;5100007;28;20461;-69
2023/10/13 11:00:45;;;;;;;14.90;14.40;;;25.60;99.90;;;;;;5090060;28;20461;-70
2023/10/13 11:03:13;;;;;;;14.80;14.30;;;25.60;99.90;;;;;;5095088;28;20552;-70
2023/10/13 11:05:46;;;;;;;14.47;13.97;;;25.60;99.90;;;;;;5104274;28;20525;-70
2023/10/13 11:08:31;;;;;;;14.83;14.33;;;25.60;99.90;;;;;;5093065;28;20937;-70
2023/10/13 11:11:00;;;;;;;14.50;14.00;;;25.40;99.90;;;;;;5093840;28;20485;-70
2023/10/13 11:13:31;;;;;;;14.40;13.90;;;25.30;99.90;;;;;;5087203;28;20492;-69
2023/10/13 11:15:59;;;;;;;14.20;13.70;;;25.20;99.90;;;;;;5096520;28;20485;-70
2023/10/13 11:18:33;;;;;;;14.70;14.20;;;25.40;99.90;;;;;;5100565;28;20458;-70
2023/10/13 11:21:05;;;;;;;14.80;14.30;;;25.50;99.90;;;;;;5105295;28;20492;-69
2023/10/13 11:23:36;;;;;;;14.47;13.97;;;25.40;99.90;;;;;;5100139;28;20488;-70
2023/10/13 11:26:04;;;;;;;14.60;14.10;;;25.40;99.90;;;;;;5099779;28;20488;-70
2023/10/13 11:28:34;;;;;;;14.37;13.87;;;25.40;99.90;;;;;;5097405;28;21025;-68
2023/10/13 11:31:10;;;;;;;14.40;13.90;;;25.50;99.90;;;;;;5103199;28;20968;-68
2023/10/13 11:33:46;;;;;;;14.77;14.27;;;25.70;99.90;;;;;;5102854;28;20464;-69
2023/10/13 11:36:17;;;;;;;14.80;14.30;;;25.70;99.90;;;;;;5106158;28;20476;-68
2023/10/13 11:38:49;;;;;;;14.40;13.90;;;25.60;99.90;;;;;;5107329;28;20454;-68
2023/10/13 11:41:16;;;;;;;14.43;13.93;;;25.50;99.90;;;;;;5094085;28;20473;-70
2023/10/13 11:44:07;;;;;;;14.90;14.40;;;25.40;99.90;;;;;;5091869;28;20457;-68
2023/10/13 11:49:20;;;;;;;14.60;14.10;;;25.00;99.90;;;;;;5091825;28;20512;-68
2023/10/13 11:51:48;;;;;;;14.50;14.00;;;25.00;99.90;;;;;;5103282;28;20456;-68
2023/10/13 11:54:17;;;;;;;14.47;13.97;;;25.00;99.90;;;;;;5094723;28;20493;-68
2023/10/13 11:56:46;;;;;;;14.43;13.93;;;25.00;99.90;;;;;;5102685;28;20485;-69
2023/10/13 11:59:17;;;;;;;14.30;13.80;;;25.00;99.90;;;;;;5091272;28;20470;-68
2023/10/13 12:04:33;;;;;;;14.50;14.00;;;24.90;99.90;;;;;;5097125;28;20591;-68
2023/10/13 12:07:14;;;;;;;14.50;14.00;;;24.90;99.90;;;;;;5097635;28;20872;-69
2023/10/13 12:09:52;;;;;;;14.40;13.90;;;25.00;99.90;;;;;;5092721;28;20475;-68
2023/10/13 12:12:19;;;;;;;14.80;14.30;;;25.20;99.90;;;;;;5089501;28;20979;-68
2023/10/13 12:14:54;;;;;;;14.50;14.00;;;25.30;99.90;;;;;;5096887;28;20986;-68
2023/10/13 12:17:24;;;;;;;14.10;13.60;;;25.30;99.90;;;;;;5104578;28;20501;-67
2023/10/13 12:19:54;;;;;;;14.30;13.80;;;25.40;99.90;;;;;;5092639;28;20465;-66
2023/10/13 12:22:28;;;;;;;14.50;14.00;;;25.30;99.90;;;;;;5089781;28;20461;-68
2023/10/13 12:24:57;;;;;;;14.27;13.77;;;25.30;99.90;;;;;;5096282;28;20461;-67
2023/10/13 12:27:34;;;;;;;14.30;13.80;;;25.30;99.90;;;;;;5094619;28;20507;-68
2023/10/13 12:30:07;;;;;;;14.30;13.80;;;25.20;99.90;;;;;;5098267;28;20468;-67
2023/10/13 12:32:35;;;;;;;14.13;13.63;;;25.10;99.90;;;;;;5097688;28;20541;-68
2023/10/13 12:38:05;;;;;;;14.50;14.00;;;25.10;99.90;;;;;;5102906;27;20597;-68
2023/10/13 12:49:04;;;;;;;14.77;14.27;;;25.10;99.90;;;;;;5092855;28;20544;-69
2023/10/13 12:51:51;;;;;;;14.90;14.40;;;25.10;99.90;;;;;;5095343;28;20463;-68
2023/10/13 12:54:27;;;;;;;14.80;14.30;;;25.00;99.90;;;;;;5085390;28;20474;-68
2023/10/13 12:56:56;;;;;;;14.40;13.90;;;24.90;99.90;;;;;;5098076;28;20490;-68
2023/10/13 12:59:26;;;;;;;14.30;13.80;;;25.00;99.90;;;;;;5092145;28;20507;-68
2023/10/13 13:01:54;;;;;;;14.47;13.97;;;25.10;99.90;;;;;;5086824;28;20457;-68
2023/10/13 13:04:20;;;;;;;14.57;14.07;;;25.00;99.90;;;;;;5090579;28;20458;-68
2023/10/13 13:06:49;;;;;;;14.83;14.33;;;24.90;99.90;;;;;;5091883;28;20458;-67
2023/10/13 13:09:15;;;;;;;14.60;14.10;;;25.00;99.90;;;;;;5092268;28;20867;-68
2023/10/13 13:11:48;;;;;;;14.50;14.00;;;24.80;99.90;;;;;;5093026;28;20517;-68
2023/10/13 13:14:15;;;;;;;14.57;14.07;;;24.90;99.90;;;;;;5086451;28;20549;-69
2023/10/13 13:16:45;;;;;;;14.40;13.90;;;24.90;99.90;;;;;;5094048;28;20488;-68
2023/10/13 13:19:24;;;;;;;14.40;13.90;;;24.80;99.90;;;;;;5090687;28;20545;-69
2023/10/13 13:21:51;;;;;;;15.50;14.90;;;24.80;99.90;;;;;;5101579;28;20460;-69
2023/10/13 13:24:20;;;;;;;15.17;14.67;;;24.80;99.90;;;;;;5095286;28;20466;-69
2023/10/13 13:26:54;;;;;;;15.73;15.13;;;24.80;99.90;;;;;;5085678;28;20462;-69
2023/10/13 13:29:21;;;;;;;15.20;14.70;;;24.80;99.90;;;;;;5089419;28;20500;-69
2023/10/13 13:31:48;;;;;;;15.10;14.60;;;24.80;99.90;;;;;;5093581;28;20474;-70
2023/10/13 13:34:15;;;;;;;15.00;14.50;;;24.70;99.90;;;;;;5092185;28;20458;-69
2023/10/13 13:36:44;;;;;;;15.43;14.83;;;24.60;99.90;;;;;;5103246;28;20492;-69
2023/10/13 13:39:11;;;;;;;15.10;14.60;;;24.50;99.90;;;;;;5098659;28;20445;-68
2023/10/13 13:41:38;;;;;;;14.90;14.40;;;24.50;99.90;;;;;;5084460;28;20465;-70
2023/10/13 13:44:14;;;;;;;14.93;14.43;;;24.50;99.90;;;;;;5084679;28;20492;-69
2023/10/13 13:46:42;;;;;;;15.00;14.50;;;24.60;99.90;;;;;;5095474;28;20722;-68
2023/10/13 13:49:17;;;;;;;14.93;14.43;;;24.50;99.90;;;;;;5086479;28;20464;-70
2023/10/13 13:51:51;;;;;;;15.03;14.53;;;24.40;99.90;;;;;;5078165;28;22012;-69
2023/10/13 13:54:20;;;;;;;14.67;14.17;;;24.40;99.90;;;;;;5076072;28;20974;-69
2023/10/13 13:56:47;;;;;;;14.50;14.00;;;24.30;99.90;;;;;;5082770;28;20761;-68
2023/10/13 13:59:19;;;;;;;14.40;13.90;;;24.30;99.90;;;;;;5074936;28;20558;-69
2023/10/13 14:01:47;;;;;;;14.50;14.00;;;24.20;99.90;;;;;;5078628;28;20466;-69
2023/10/13 14:04:17;;;;;;;14.50;14.00;;;24.10;99.90;;;;;;5074063;28;20451;-70
2023/10/13 14:06:44;;;;;;;14.40;13.90;;;24.00;99.90;;;;;;5069259;28;20888;-69
2023/10/13 14:09:16;;;;;;;14.60;14.10;;;24.00;99.90;;;;;;5073412;28;20461;-69
2023/10/13 14:14:33;;;;;;;14.37;13.87;;;23.80;99.90;;;;;;5083567;28;20450;-70
2023/10/13 14:17:06;;;;;;;14.37;13.87;;;23.80;99.90;;;;;;5079641;28;20483;-70
2023/10/13 14:19:35;;;;;;;14.20;13.70;;;23.70;99.90;;;;;;5075868;28;20458;-68
2023/10/13 14:22:06;;;;;;;14.23;13.73;;;23.60;99.90;;;;;;5083489;28;20457;-68
2023/10/13 14:24:35;;;;;;;14.20;13.70;;;23.60;99.90;;;;;;5070381;28;21103;-69
2023/10/13 14:27:09;;;;;;;14.20;13.70;;;23.50;99.90;;;;;;5079457;28;20469;-69
2023/10/13 14:29:40;;;;;;;14.40;13.90;;;23.50;99.90;;;;;;5083331;28;20538;-68
2023/10/13 14:32:12;;;;;;;14.30;13.80;;;23.40;99.90;;;;;;5084904;28;20454;-68
2023/10/13 14:34:40;;;;;;;14.30;13.80;;;23.30;99.90;;;;;;5082001;28;20529;-70
2023/10/13 14:37:07;;;;;;;14.20;13.70;;;23.30;99.90;;;;;;5075324;28;20585;-69
2023/10/13 14:39:36;;;;;;;13.93;13.50;;;23.20;99.90;;;;;;5082371;28;20546;-69
2023/10/13 14:42:05;;;;;;;13.50;13.10;;;23.30;99.90;;;;;;5069276;28;20568;-69
2023/10/13 14:44:32;;;;;;;13.90;13.50;;;23.20;99.90;;;;;;5068914;28;20487;-70
2023/10/13 14:47:00;;;;;;;13.70;13.30;;;23.20;99.90;;;;;;5075625;28;20500;-69
2023/10/13 14:49:27;;;;;;;13.70;13.30;;;23.10;99.90;;;;;;5076186;28;20443;-70
2023/10/13 14:51:55;;;;;;;13.97;13.57;;;23.10;99.90;;;;;;5085173;28;20461;-70
2023/10/13 14:54:32;;;;;;;13.50;13.10;;;23.10;99.90;;;;;;5075790;28;20873;-69
2023/10/13 14:57:00;;;;;;;13.70;13.30;;;23.00;99.90;;;;;;5074463;28;20482;-70
2023/10/13 14:59:32;;;;;;;13.53;13.13;;;22.90;99.90;;;;;;5074259;28;20497;-69
2023/10/13 15:02:02;;;;;;;13.50;13.10;;;23.00;99.90;;;;;;5075881;28;20443;-69
2023/10/13 15:04:32;;;;;;;13.80;13.40;;;23.00;99.90;;;;;;5076662;28;20454;-69